Terminal Aerodrome Forecast
Issued by NWS

Home | Current Version | Previous Version | Graphics & Text | Print | Product List | Glossary On
Versions: 1 2 3 4 5 6 7 8 9 10 11 12 13 14
431
FTUS43 KOAX 102048 AAA
TAFCDR
TAF AMD
KCDR 102048Z 1021/1118 29021G32KT P6SM SKC
     FM110000 26007KT P6SM SKC
     FM111500 28010G20KT P6SM BKN150=

USA.gov is the U.S. government's official web portal to all federal, state and local government web resources and services.